createdAt,value
2023-02-27T00:01:54.035Z,39.56
2023-02-27T00:04:22.603Z,39.44
2023-02-27T00:06:51.290Z,39.51
2023-02-27T00:09:20.154Z,39.49
2023-02-27T00:11:48.674Z,39.45
2023-02-27T00:14:17.563Z,39.25
2023-02-27T00:16:47.592Z,39.28
2023-02-27T00:19:16.191Z,39.38
2023-02-27T00:21:45.426Z,39.33
2023-02-27T00:24:14.054Z,39.30
2023-02-27T00:26:42.635Z,39.08
2023-02-27T00:29:11.178Z,39.20
2023-02-27T00:31:39.888Z,39.30
2023-02-27T00:34:09.901Z,39.28
2023-02-27T00:36:38.420Z,39.17
2023-02-27T00:39:06.954Z,39.20
2023-02-27T00:41:35.480Z,39.01
2023-02-27T00:44:04.028Z,39.10
2023-02-27T00:46:32.769Z,39.04
2023-02-27T00:49:01.320Z,39.08
2023-02-27T00:51:31.555Z,38.97
2023-02-27T00:54:00.248Z,38.98
2023-02-27T00:56:28.844Z,38.98
2023-02-27T00:58:57.456Z,39.02
2023-02-27T01:01:26.269Z,39.04
2023-02-27T01:03:54.851Z,38.95
2023-02-27T01:06:23.436Z,39.03
2023-02-27T01:08:53.367Z,38.81
2023-02-27T01:11:21.991Z,38.98
2023-02-27T01:13:50.641Z,38.95
2023-02-27T01:16:19.249Z,38.97
2023-02-27T01:18:47.914Z,39.00
2023-02-27T01:21:16.741Z,38.98
2023-02-27T01:23:45.255Z,38.83
2023-02-27T01:26:15.319Z,38.82
2023-02-27T01:28:43.892Z,38.92
2023-02-27T01:31:12.425Z,38.81
2023-02-27T01:33:41.026Z,38.75
2023-02-27T01:36:11.079Z,38.94
2023-02-27T01:38:39.634Z,38.76
2023-02-27T01:41:08.277Z,38.82
2023-02-27T01:43:57.707Z,38.77
2023-02-27T01:46:26.422Z,38.81
2023-02-27T01:48:59.720Z,38.71
2023-02-27T01:51:31.446Z,38.82
2023-02-27T01:54:00.601Z,38.73
2023-02-27T01:56:30.958Z,38.66
2023-02-27T01:59:03.323Z,38.67
2023-02-27T02:01:32.249Z,38.72
2023-02-27T02:04:03.772Z,38.72
2023-02-27T02:06:33.322Z,38.55
2023-02-27T02:09:01.941Z,38.54
2023-02-27T02:11:30.672Z,38.64
2023-02-27T02:14:02.770Z,38.61
2023-02-27T02:16:43.155Z,38.64
2023-02-27T02:19:31.603Z,38.42
2023-02-27T02:22:35.376Z,38.43
2023-02-27T02:25:42.113Z,38.44
2023-02-27T02:28:19.375Z,38.50
2023-02-27T02:31:24.779Z,38.56
2023-02-27T02:34:19.977Z,38.39
2023-02-27T02:37:33.279Z,38.45
2023-02-27T02:40:28.128Z,38.41
2023-02-27T02:42:59.731Z,38.27
2023-02-27T02:45:31.850Z,38.31
2023-02-27T02:48:10.643Z,38.27
2023-02-27T02:50:42.965Z,38.42
2023-02-27T02:53:17.394Z,38.40
2023-02-27T02:55:49.413Z,38.36
2023-02-27T02:58:22.654Z,38.27
2023-02-27T03:00:55.751Z,38.31
2023-02-27T03:03:28.041Z,38.36
2023-02-27T03:06:00.121Z,38.34
2023-02-27T03:08:30.503Z,38.20
2023-02-27T03:11:01.395Z,38.25
2023-02-27T03:13:33.066Z,38.20
2023-02-27T03:16:03.943Z,38.21
2023-02-27T03:18:35.195Z,38.13
2023-02-27T03:21:05.884Z,38.23
2023-02-27T03:23:37.269Z,37.97
2023-02-27T03:26:07.381Z,38.11
2023-02-27T03:28:38.761Z,38.23
2023-02-27T03:31:10.658Z,38.05
2023-02-27T03:33:41.372Z,38.10
2023-02-27T03:36:12.440Z,37.97
2023-02-27T03:38:43.711Z,38.14
2023-02-27T03:41:16.470Z,38.03
2023-02-27T03:43:51.013Z,38.02
2023-02-27T03:46:21.609Z,38.02
2023-02-27T03:48:50.235Z,38.01
2023-02-27T03:51:20.965Z,38.09
2023-02-27T03:53:51.218Z,38.07
2023-02-27T03:56:25.563Z,38.11
2023-02-27T03:58:54.305Z,37.95
2023-02-27T04:01:22.972Z,37.92
2023-02-27T04:03:54.556Z,38.06
2023-02-27T04:06:40.694Z,37.92
2023-02-27T04:09:12.711Z,37.89
2023-02-27T04:12:03.363Z,38.01
2023-02-27T04:14:43.271Z,37.82
2023-02-27T04:17:25.104Z,37.85
2023-02-27T04:20:17.202Z,37.92
2023-02-27T04:22:48.756Z,37.84
2023-02-27T04:25:44.862Z,37.90
2023-02-27T04:28:18.623Z,37.87
2023-02-27T04:30:59.100Z,37.83
2023-02-27T04:33:38.837Z,37.84
2023-02-27T04:36:12.959Z,37.83
2023-02-27T04:38:45.368Z,37.76
2023-02-27T04:41:16.065Z,37.70
2023-02-27T04:43:46.114Z,37.75
2023-02-27T04:46:16.598Z,37.87
2023-02-27T04:48:50.660Z,37.79
2023-02-27T04:51:22.858Z,37.83
2023-02-27T04:53:55.417Z,37.71
2023-02-27T04:56:25.867Z,37.83
2023-02-27T04:58:58.226Z,37.81
2023-02-27T05:01:31.886Z,37.81
2023-02-27T05:04:00.779Z,37.75
2023-02-27T05:06:31.622Z,37.66
2023-02-27T05:09:05.837Z,37.73
2023-02-27T05:11:37.532Z,37.79
2023-02-27T05:14:13.013Z,37.70
2023-02-27T05:16:43.148Z,37.74
2023-02-27T05:19:11.934Z,37.69
2023-02-27T05:21:43.152Z,37.69
2023-02-27T05:24:15.636Z,37.57
2023-02-27T05:27:11.454Z,37.70
2023-02-27T05:29:46.649Z,37.63
2023-02-27T05:32:23.897Z,37.68
2023-02-27T05:34:54.111Z,37.78
2023-02-27T05:37:25.734Z,37.96
2023-02-27T05:39:54.776Z,37.57
2023-02-27T05:42:27.079Z,37.75
2023-02-27T05:45:00.665Z,37.71
2023-02-27T05:47:30.652Z,37.64
2023-02-27T05:50:02.944Z,37.72
2023-02-27T05:52:31.447Z,37.88
2023-02-27T05:55:03.417Z,38.67
2023-02-27T05:57:35.363Z,38.41
2023-02-27T06:00:10.848Z,38.66
2023-02-27T06:02:39.650Z,38.91
2023-02-27T06:05:09.502Z,38.59
2023-02-27T06:07:38.245Z,38.59
2023-02-27T06:10:07.632Z,38.72
2023-02-27T06:12:36.324Z,38.70
2023-02-27T06:15:07.479Z,38.59
2023-02-27T06:17:36.174Z,39.43
2023-02-27T06:20:05.338Z,38.60
2023-02-27T06:22:33.875Z,39.60
2023-02-27T06:25:03.070Z,39.00
2023-02-27T06:27:31.679Z,38.79
2023-02-27T06:30:00.259Z,38.83
2023-02-27T06:32:30.289Z,38.74
2023-02-27T06:34:59.024Z,38.69
2023-02-27T06:37:27.634Z,38.70
2023-02-27T06:39:56.294Z,39.09
2023-02-27T06:42:27.404Z,38.69
2023-02-27T06:44:56.064Z,39.56
2023-02-27T06:47:24.826Z,38.67
2023-02-27T06:49:54.763Z,38.63
2023-02-27T06:52:23.424Z,38.57
2023-02-27T06:54:51.941Z,38.40
2023-02-27T06:57:20.822Z,38.54
2023-02-27T06:59:49.510Z,38.32
2023-02-27T07:02:18.308Z,38.51
2023-02-27T07:04:46.895Z,38.38
2023-02-27T07:07:36.275Z,38.30
2023-02-27T07:10:06.538Z,38.41
2023-02-27T07:12:35.296Z,38.32
2023-02-27T07:15:04.449Z,38.31
2023-02-27T07:17:33.088Z,38.22
2023-02-27T07:20:01.839Z,38.29
2023-02-27T07:22:31.860Z,38.21
2023-02-27T07:25:00.740Z,38.21
2023-02-27T07:27:29.322Z,38.13
2023-02-27T07:29:58.005Z,38.18
2023-02-27T07:32:26.723Z,38.03
2023-02-27T07:34:55.474Z,38.03
2023-02-27T07:37:25.478Z,38.00
2023-02-27T07:39:57.194Z,37.97
2023-02-27T07:42:25.832Z,38.17
2023-02-27T07:44:54.447Z,38.00
2023-02-27T07:47:23.106Z,37.92
2023-02-27T07:49:51.626Z,37.88
2023-02-27T07:52:20.436Z,37.87
2023-02-27T07:54:49.182Z,37.98
2023-02-27T07:57:19.271Z,37.87
2023-02-27T07:59:48.477Z,37.83
2023-02-27T08:02:17.383Z,37.89
2023-02-27T08:04:46.007Z,37.75
2023-02-27T08:07:14.587Z,37.79
2023-02-27T08:09:43.417Z,37.86
2023-02-27T08:12:12.109Z,37.85
2023-02-27T08:14:42.061Z,37.67
2023-02-27T08:17:10.771Z,37.83
2023-02-27T08:19:39.593Z,37.82
2023-02-27T08:22:08.135Z,37.75
2023-02-27T08:24:36.971Z,37.96
2023-02-27T08:27:05.733Z,37.94
2023-02-27T08:29:34.382Z,37.82
2023-02-27T08:32:04.932Z,37.75
2023-02-27T08:34:33.676Z,37.75
2023-02-27T08:37:02.319Z,37.72
2023-02-27T08:39:31.048Z,37.70
2023-02-27T08:41:59.676Z,37.86
2023-02-27T08:44:28.685Z,37.72
2023-02-27T08:46:57.339Z,37.76
2023-02-27T08:49:27.391Z,37.75
2023-02-27T08:51:56.247Z,37.73
2023-02-27T08:54:24.843Z,37.61
2023-02-27T08:56:53.475Z,37.72
2023-02-27T08:59:22.166Z,37.77
2023-02-27T09:01:50.965Z,37.58
2023-02-27T09:04:21.052Z,37.57
2023-02-27T09:06:51.155Z,37.75
2023-02-27T09:09:19.766Z,37.81
2023-02-27T09:11:48.461Z,37.82
2023-02-27T09:14:17.228Z,38.04
2023-02-27T09:16:45.953Z,38.41
2023-02-27T09:19:14.898Z,38.41
2023-02-27T09:21:43.760Z,38.49
2023-02-27T09:24:20.127Z,38.84
2023-02-27T09:26:49.969Z,38.95
2023-02-27T09:29:18.812Z,38.89
2023-02-27T09:31:48.176Z,38.86
2023-02-27T09:34:17.077Z,38.84
2023-02-27T09:36:45.743Z,38.70
2023-02-27T09:39:15.657Z,38.54
2023-02-27T09:41:52.889Z,38.55
2023-02-27T09:44:45.753Z,38.40
2023-02-27T09:47:19.718Z,38.42
2023-02-27T09:50:00.844Z,38.38
2023-02-27T09:52:30.036Z,38.39
2023-02-27T09:55:00.670Z,38.33
2023-02-27T09:57:40.315Z,38.38
2023-02-27T10:00:15.351Z,38.28
2023-02-27T10:02:51.231Z,38.19
2023-02-27T10:05:27.993Z,38.25
2023-02-27T10:08:03.169Z,38.08
2023-02-27T10:10:36.848Z,38.08
2023-02-27T10:13:25.445Z,38.17
2023-02-27T10:15:54.858Z,38.12
2023-02-27T10:18:29.129Z,38.30
2023-02-27T10:21:01.708Z,38.07
2023-02-27T10:23:38.521Z,38.16
2023-02-27T10:26:09.005Z,38.09
2023-02-27T10:28:37.667Z,38.13
2023-02-27T10:31:11.653Z,38.35
2023-02-27T10:33:41.337Z,38.20
2023-02-27T10:36:20.609Z,38.11
2023-02-27T10:38:53.986Z,38.19
2023-02-27T10:41:23.937Z,38.09
2023-02-27T10:43:53.031Z,37.98
2023-02-27T10:46:27.611Z,37.98
2023-02-27T10:48:56.931Z,37.87
2023-02-27T10:51:27.773Z,37.87
2023-02-27T10:54:21.629Z,37.84
2023-02-27T10:56:53.411Z,37.88
2023-02-27T10:59:24.703Z,37.85
2023-02-27T11:01:55.817Z,37.67
2023-02-27T11:04:30.024Z,37.72
2023-02-27T11:06:58.670Z,37.71
2023-02-27T11:09:29.087Z,37.67
2023-02-27T11:12:10.860Z,37.80
2023-02-27T11:14:49.829Z,37.75
2023-02-27T11:17:25.832Z,37.65
2023-02-27T11:19:54.436Z,37.77
2023-02-27T11:22:24.833Z,37.69
2023-02-27T11:24:53.455Z,37.56
2023-02-27T11:27:26.735Z,37.57
2023-02-27T11:29:59.975Z,37.65
2023-02-27T11:32:32.825Z,37.59
2023-02-27T11:35:01.465Z,37.62
2023-02-27T11:37:32.757Z,38.04
2023-02-27T11:40:12.946Z,37.66
2023-02-27T11:42:46.605Z,37.57
2023-02-27T11:46:10.242Z,37.57
2023-02-27T11:48:22.011Z,37.57
2023-02-27T11:51:25.961Z,37.73
2023-02-27T11:54:09.567Z,37.52
2023-02-27T11:56:40.030Z,37.49
2023-02-27T11:59:25.074Z,37.55
2023-02-27T12:01:57.724Z,37.49
2023-02-27T12:04:28.705Z,37.36
2023-02-27T12:07:00.460Z,37.41
2023-02-27T12:09:38.849Z,37.56
2023-02-27T12:12:13.518Z,37.68
2023-02-27T12:14:48.686Z,37.81
2023-02-27T12:17:22.643Z,38.09
2023-02-27T12:20:37.608Z,37.89
2023-02-27T12:23:15.090Z,37.97
2023-02-27T12:25:46.955Z,38.27
2023-02-27T12:28:28.951Z,38.14
2023-02-27T12:31:32.506Z,38.11
2023-02-27T12:34:05.322Z,38.08
2023-02-27T12:36:34.153Z,37.98
2023-02-27T12:39:04.555Z,37.81
2023-02-27T12:41:44.154Z,37.83
2023-02-27T12:44:33.157Z,37.67
2023-02-27T12:47:10.725Z,37.69
2023-02-27T12:49:44.011Z,37.54
2023-02-27T12:52:21.372Z,37.55
2023-02-27T12:55:01.616Z,37.47
2023-02-27T12:57:41.362Z,37.36
2023-02-27T13:00:15.946Z,37.55
2023-02-27T13:02:55.781Z,37.44
2023-02-27T13:05:43.151Z,37.86
2023-02-27T13:08:34.400Z,37.33
2023-02-27T13:11:07.950Z,37.29
2023-02-27T13:13:40.030Z,37.31
2023-02-27T13:16:13.493Z,37.42
2023-02-27T13:18:45.779Z,37.41
2023-02-27T13:21:16.345Z,37.40
2023-02-27T13:23:58.595Z,37.33
2023-02-27T13:26:30.293Z,37.30
2023-02-27T13:28:59.336Z,37.17
2023-02-27T13:31:36.755Z,37.31
2023-02-27T13:34:16.082Z,37.42
2023-02-27T13:36:46.564Z,37.26
2023-02-27T13:39:41.666Z,37.36
2023-02-27T13:43:07.611Z,37.37
2023-02-27T13:45:57.387Z,37.13
2023-02-27T13:48:52.114Z,37.00
2023-02-27T13:51:56.669Z,37.10
2023-02-27T13:54:30.753Z,37.13
2023-02-27T13:57:25.769Z,37.20
2023-02-27T13:59:59.900Z,37.24
2023-02-27T14:02:58.363Z,37.02
2023-02-27T14:05:32.171Z,37.17
2023-02-27T14:08:09.011Z,37.07
2023-02-27T14:10:38.244Z,37.21
2023-02-27T14:13:07.685Z,37.13
2023-02-27T14:16:07.999Z,37.21
2023-02-27T14:18:57.823Z,37.14
2023-02-27T14:21:56.565Z,36.88
2023-02-27T14:24:38.294Z,37.03
2023-02-27T14:27:15.626Z,37.19
2023-02-27T14:29:46.421Z,37.18
2023-02-27T14:32:19.218Z,37.04
2023-02-27T14:34:47.849Z,37.39
2023-02-27T14:37:18.343Z,37.02
2023-02-27T14:39:49.699Z,36.98
2023-02-27T14:42:47.232Z,37.13
2023-02-27T14:45:17.774Z,37.04
2023-02-27T14:47:47.776Z,37.04
2023-02-27T14:50:34.293Z,36.98
2023-02-27T14:53:02.990Z,36.93
2023-02-27T14:55:33.678Z,36.81
2023-02-27T14:58:09.931Z,36.91
2023-02-27T15:00:39.940Z,36.85
2023-02-27T15:03:18.815Z,36.87
2023-02-27T15:05:47.868Z,36.87
2023-02-27T15:08:19.376Z,36.74
2023-02-27T15:10:49.547Z,36.79
2023-02-27T15:13:25.701Z,36.71
2023-02-27T15:16:16.520Z,36.72
2023-02-27T15:18:59.231Z,36.55
2023-02-27T15:21:30.684Z,36.54
2023-02-27T15:24:00.980Z,36.65
2023-02-27T15:26:35.107Z,36.47
2023-02-27T15:29:04.950Z,36.59
2023-02-27T15:31:33.648Z,36.50
2023-02-27T15:34:03.047Z,36.41
2023-02-27T15:36:32.860Z,36.42
2023-02-27T15:39:17.831Z,36.49
2023-02-27T15:41:52.508Z,36.39
2023-02-27T15:44:25.659Z,36.39
2023-02-27T15:46:54.346Z,36.37
2023-02-27T15:49:24.148Z,36.52
2023-02-27T15:52:00.833Z,36.96
2023-02-27T15:54:34.289Z,36.80
2023-02-27T15:57:04.822Z,36.99
2023-02-27T15:59:35.105Z,36.98
2023-02-27T16:02:04.348Z,37.18
2023-02-27T16:04:34.918Z,37.47
2023-02-27T16:07:05.006Z,37.16
2023-02-27T16:09:34.731Z,37.20
2023-02-27T16:12:22.794Z,37.19
2023-02-27T16:14:53.895Z,37.26
2023-02-27T16:17:28.205Z,37.00
2023-02-27T16:19:57.828Z,37.38
2023-02-27T16:22:27.420Z,37.04
2023-02-27T16:24:56.159Z,37.02
2023-02-27T16:27:27.582Z,36.86
2023-02-27T16:29:57.520Z,36.92
2023-02-27T16:32:27.738Z,37.34
2023-02-27T16:35:03.867Z,37.48
2023-02-27T16:37:40.016Z,36.78
2023-02-27T16:40:15.143Z,36.81
2023-02-27T16:42:45.743Z,36.68
2023-02-27T16:45:17.148Z,36.66
2023-02-27T16:47:45.831Z,36.63
2023-02-27T16:50:17.590Z,36.50
2023-02-27T16:52:46.275Z,36.67
2023-02-27T16:55:14.875Z,36.59
2023-02-27T16:57:44.958Z,36.51
2023-02-27T17:00:15.400Z,36.71
2023-02-27T17:02:44.156Z,36.87
2023-02-27T17:05:15.231Z,36.48
2023-02-27T17:07:44.850Z,36.69
2023-02-27T17:10:15.494Z,36.73
2023-02-27T17:12:47.114Z,36.89
2023-02-27T17:15:15.934Z,37.20
2023-02-27T17:17:44.732Z,37.43
2023-02-27T17:20:14.578Z,37.43
2023-02-27T17:22:44.747Z,37.45
2023-02-27T17:25:13.578Z,37.61
2023-02-27T17:27:44.870Z,37.80
2023-02-27T17:30:14.372Z,38.02
2023-02-27T17:32:43.065Z,38.24
2023-02-27T17:35:11.707Z,37.97
2023-02-27T17:37:40.407Z,38.27
2023-02-27T17:40:12.287Z,38.13
2023-02-27T17:42:41.034Z,38.62
2023-02-27T17:45:12.677Z,38.70
2023-02-27T17:47:41.422Z,38.57
2023-02-27T17:50:11.154Z,38.63
2023-02-27T17:52:39.860Z,38.49
2023-02-27T17:55:10.147Z,38.47
2023-02-27T17:57:39.602Z,38.37
2023-02-27T18:00:14.485Z,38.14
2023-02-27T18:02:44.908Z,38.07
2023-02-27T18:05:13.726Z,37.97
2023-02-27T18:07:42.282Z,37.94
2023-02-27T18:10:14.149Z,37.94
2023-02-27T18:12:42.835Z,37.95
2023-02-27T18:15:13.818Z,37.99
2023-02-27T18:17:43.886Z,37.81
2023-02-27T18:20:14.098Z,38.15
2023-02-27T18:22:42.796Z,37.95
2023-02-27T18:25:12.017Z,38.69
2023-02-27T18:27:40.689Z,38.18
2023-02-27T18:30:11.311Z,37.90
2023-02-27T18:32:42.798Z,37.97
2023-02-27T18:35:11.550Z,37.93
2023-02-27T18:37:40.188Z,38.33
2023-02-27T18:40:12.038Z,37.93
2023-02-27T18:42:40.764Z,38.19
2023-02-27T18:45:10.729Z,37.99
2023-02-27T18:47:40.698Z,38.01
2023-02-27T18:50:10.972Z,38.21
2023-02-27T18:52:39.656Z,38.43
2023-02-27T18:55:09.346Z,38.19
2023-02-27T18:57:37.969Z,38.19
2023-02-27T19:00:08.214Z,38.41
2023-02-27T19:02:41.548Z,38.52
2023-02-27T19:05:14.638Z,38.00
2023-02-27T19:07:43.600Z,38.24
2023-02-27T19:10:12.998Z,38.50
2023-02-27T19:12:41.690Z,38.37
2023-02-27T19:15:12.182Z,38.46
2023-02-27T19:17:40.854Z,38.36
2023-02-27T19:20:16.494Z,38.34
2023-02-27T19:22:45.626Z,38.26
2023-02-27T19:25:14.346Z,38.18
2023-02-27T19:27:44.826Z,38.37
2023-02-27T19:30:14.433Z,38.26
2023-02-27T19:32:43.137Z,38.32
2023-02-27T19:35:15.309Z,38.18
2023-02-27T19:37:46.983Z,38.22
2023-02-27T19:40:16.062Z,38.27
2023-02-27T19:42:45.778Z,38.17
2023-02-27T19:45:14.376Z,38.13
2023-02-27T19:47:43.113Z,38.03
2023-02-27T19:50:13.981Z,38.04
2023-02-27T19:52:42.696Z,38.00
2023-02-27T19:55:12.012Z,38.07
2023-02-27T19:57:40.778Z,38.05
2023-02-27T20:00:13.103Z,37.85
2023-02-27T20:02:41.800Z,37.95
2023-02-27T20:05:12.962Z,37.88
2023-02-27T20:07:42.549Z,37.93
2023-02-27T20:10:13.332Z,37.87
2023-02-27T20:12:42.007Z,37.85
2023-02-27T20:15:11.994Z,37.93
2023-02-27T20:17:42.065Z,37.92
2023-02-27T20:20:14.365Z,37.91
2023-02-27T20:22:44.972Z,38.11
2023-02-27T20:25:13.942Z,37.86
2023-02-27T20:27:42.812Z,37.79
2023-02-27T20:30:13.373Z,37.89
2023-02-27T20:32:42.170Z,37.52
2023-02-27T20:35:14.411Z,37.82
2023-02-27T20:37:43.396Z,37.76
2023-02-27T20:40:13.878Z,37.78
2023-02-27T20:42:42.829Z,37.95
2023-02-27T20:45:12.426Z,38.19
2023-02-27T20:47:41.024Z,38.14
2023-02-27T20:50:13.073Z,38.22
2023-02-27T20:52:41.977Z,38.06
2023-02-27T20:55:11.800Z,38.19
2023-02-27T20:57:40.471Z,38.08
2023-02-27T21:00:12.331Z,38.03
2023-02-27T21:02:40.914Z,38.01
2023-02-27T21:05:10.543Z,37.72
2023-02-27T21:07:40.608Z,38.84
2023-02-27T21:10:10.805Z,40.34
2023-02-27T21:12:39.378Z,40.58
2023-02-27T21:15:09.372Z,41.18
2023-02-27T21:17:38.160Z,41.73
2023-02-27T21:20:08.702Z,41.56
2023-02-27T21:22:37.399Z,41.65
2023-02-27T21:25:08.488Z,41.75
2023-02-27T21:27:37.125Z,41.77
2023-02-27T21:30:07.728Z,41.68
2023-02-27T21:32:36.316Z,41.97
2023-02-27T21:35:05.267Z,42.16
2023-02-27T21:37:34.057Z,42.24
2023-02-27T21:40:04.345Z,42.17
2023-02-27T21:42:34.359Z,42.26
2023-02-27T21:45:02.974Z,42.36
2023-02-27T21:47:31.919Z,42.38
2023-02-27T21:50:00.449Z,42.33
2023-02-27T21:52:31.454Z,42.33
2023-02-27T21:55:00.085Z,42.46
2023-02-27T21:57:28.767Z,42.35
2023-02-27T21:59:58.880Z,42.40
2023-02-27T22:02:27.633Z,41.79
2023-02-27T22:04:56.247Z,42.58
2023-02-27T22:07:24.848Z,42.51
2023-02-27T22:09:53.383Z,42.59
2023-02-27T22:12:23.191Z,42.61
2023-02-27T22:14:51.811Z,42.82
2023-02-27T22:17:21.734Z,42.70
2023-02-27T22:19:51.012Z,41.70
2023-02-27T22:22:19.635Z,42.55
2023-02-27T22:24:48.463Z,42.71
2023-02-27T22:27:17.081Z,42.76
2023-02-27T22:29:45.635Z,42.91
2023-02-27T22:32:14.229Z,42.74
2023-02-27T22:34:44.281Z,42.99
2023-02-27T22:37:13.883Z,43.09
2023-02-27T22:39:42.634Z,43.16
2023-02-27T22:42:11.487Z,43.10
2023-02-27T22:44:40.174Z,43.22
2023-02-27T22:47:09.449Z,43.15
2023-02-27T22:49:39.300Z,43.21
2023-02-27T22:52:09.252Z,43.19
2023-02-27T22:54:37.971Z,43.17
2023-02-27T22:57:06.531Z,42.96
2023-02-27T22:59:35.142Z,43.10
2023-02-27T23:02:03.916Z,42.87
2023-02-27T23:04:32.920Z,43.04
2023-02-27T23:07:01.496Z,43.18
2023-02-27T23:09:31.529Z,43.16
2023-02-27T23:12:02.296Z,42.92
2023-02-27T23:14:31.878Z,42.94
2023-02-27T23:17:00.552Z,42.88
2023-02-27T23:19:29.343Z,42.99
2023-02-27T23:21:58.195Z,43.13
2023-02-27T23:24:26.915Z,43.06
2023-02-27T23:26:56.822Z,43.08
2023-02-27T23:29:25.564Z,43.12
2023-02-27T23:31:54.307Z,43.03
2023-02-27T23:34:23.012Z,43.01
2023-02-27T23:36:51.645Z,42.96
2023-02-27T23:39:20.811Z,42.84
2023-02-27T23:41:49.413Z,42.73
2023-02-27T23:44:36.712Z,42.96
2023-02-27T23:47:05.329Z,42.85
2023-02-27T23:49:34.685Z,42.85
2023-02-27T23:52:03.364Z,42.74
2023-02-27T23:54:31.884Z,42.86
2023-02-27T23:57:01.610Z,42.71
2023-02-27T23:59:31.680Z,42.64
